createdAt,value
2022-08-21T00:02:22.794Z,98988.56
2022-08-21T00:07:25.596Z,98993.44
2022-08-21T00:12:29.948Z,98985.19
2022-08-21T00:15:02.551Z,98976.03
2022-08-21T00:17:31.076Z,98979.22
2022-08-21T00:20:00.689Z,98966.75
2022-08-21T00:22:29.033Z,98976.53
2022-08-21T00:25:02.863Z,98967.25
2022-08-21T00:27:32.881Z,98966.03
2022-08-21T00:30:07.596Z,98961.59
2022-08-21T00:32:36.373Z,98962.50
2022-08-21T00:35:13.173Z,98971.31
2022-08-21T00:37:48.023Z,98964.94
2022-08-21T00:40:17.751Z,98967.38
2022-08-21T00:42:53.766Z,98970.22
2022-08-21T00:45:22.763Z,98968.19
2022-08-21T00:47:51.856Z,98964.56
2022-08-21T00:50:21.527Z,98972.41
2022-08-21T00:52:53.341Z,98961.22
2022-08-21T00:55:22.739Z,98965.19
2022-08-21T00:57:57.081Z,98953.41
2022-08-21T01:00:36.013Z,98957.31
2022-08-21T01:03:09.071Z,98958.41
2022-08-21T01:05:41.070Z,98958.84
2022-08-21T01:08:09.974Z,98959.94
2022-08-21T01:10:39.048Z,98966.88
2022-08-21T01:13:10.837Z,98943.47
2022-08-21T01:15:41.944Z,98957.25
2022-08-21T01:18:12.013Z,98958.41
2022-08-21T01:20:42.912Z,98962.28
2022-08-21T01:23:12.693Z,98959.28
2022-08-21T01:25:42.351Z,98957.84
2022-08-21T01:28:13.279Z,98956.78
2022-08-21T01:30:51.142Z,98957.28
2022-08-21T01:33:21.415Z,98961.72
2022-08-21T01:35:55.358Z,98947.72
2022-08-21T01:38:32.410Z,98947.88
2022-08-21T01:41:03.920Z,98941.50
2022-08-21T01:43:39.621Z,98952.06
2022-08-21T01:46:14.613Z,98936.47
2022-08-21T01:48:43.396Z,98946.41
2022-08-21T01:51:13.933Z,98938.66
2022-08-21T01:53:43.617Z,98938.12
2022-08-21T01:56:16.719Z,98944.84
2022-08-21T01:58:47.090Z,98943.63
2022-08-21T02:01:16.094Z,98947.84
2022-08-21T02:03:44.791Z,98935.19
2022-08-21T02:06:19.308Z,98939.78
2022-08-21T02:08:49.310Z,98939.69
2022-08-21T02:11:18.627Z,98939.28
2022-08-21T02:13:46.923Z,98943.78
2022-08-21T02:16:20.244Z,98934.72
2022-08-21T02:18:49.527Z,98936.41
2022-08-21T02:21:23.124Z,98935.25
2022-08-21T02:23:52.832Z,98930.44
2022-08-21T02:26:24.407Z,98940.53
2022-08-21T02:28:53.009Z,98941.09
2022-08-21T02:31:25.638Z,98943.94
2022-08-21T02:33:53.973Z,98948.72
2022-08-21T02:36:25.775Z,98948.78
2022-08-21T02:38:55.637Z,98950.41
2022-08-21T02:41:27.277Z,98937.59
2022-08-21T02:43:55.660Z,98943.63
2022-08-21T02:46:29.875Z,98935.53
2022-08-21T02:48:58.246Z,98932.06
2022-08-21T02:51:30.127Z,98935.31
2022-08-21T02:53:59.792Z,98935.31
2022-08-21T02:56:31.565Z,98935.19
2022-08-21T02:59:00.338Z,98943.31
2022-08-21T03:01:31.048Z,98935.63
2022-08-21T03:04:00.004Z,98926.41
2022-08-21T03:06:30.892Z,98926.31
2022-08-21T03:09:00.822Z,98926.34
2022-08-21T03:11:37.205Z,98933.97
2022-08-21T03:14:06.250Z,98929.88
2022-08-21T03:16:41.407Z,98927.53
2022-08-21T03:19:09.734Z,98930.44
2022-08-21T03:21:39.816Z,98927.59
2022-08-21T03:24:10.013Z,98935.63
2022-08-21T03:26:40.119Z,98926.53
2022-08-21T03:29:09.816Z,98940.41
2022-08-21T03:31:42.590Z,98944.91
2022-08-21T03:34:11.794Z,98931.28
2022-08-21T03:36:42.487Z,98943.94
2022-08-21T03:39:12.238Z,98941.41
2022-08-21T03:41:48.327Z,98943.03
2022-08-21T03:44:16.723Z,98949.59
2022-08-21T03:46:46.870Z,98942.41
2022-08-21T03:49:15.252Z,98943.59
2022-08-21T03:51:59.112Z,98945.19
2022-08-21T03:54:30.145Z,98949.59
2022-08-21T03:56:58.505Z,98948.44
2022-08-21T03:59:32.253Z,98946.88
2022-08-21T04:02:01.740Z,98947.44
2022-08-21T04:04:33.548Z,98960.19
2022-08-21T04:07:01.928Z,98949.81
2022-08-21T04:09:36.798Z,98951.16
2022-08-21T04:12:06.869Z,98957.47
2022-08-21T04:14:36.952Z,98957.31
2022-08-21T04:17:05.576Z,98961.44
2022-08-21T04:19:37.301Z,98962.94
2022-08-21T04:22:06.151Z,98961.91
2022-08-21T04:24:38.476Z,98959.94
2022-08-21T04:27:07.062Z,98963.56
2022-08-21T04:29:44.763Z,98963.41
2022-08-21T04:32:13.400Z,98965.06
2022-08-21T04:34:42.442Z,98971.97
2022-08-21T04:37:16.335Z,98970.28
2022-08-21T04:39:49.357Z,98979.91
2022-08-21T04:42:26.950Z,98971.94
2022-08-21T04:44:57.431Z,98978.06
2022-08-21T04:47:52.373Z,98976.38
2022-08-21T04:50:15.427Z,98983.59
2022-08-21T04:52:54.632Z,98979.59
2022-08-21T04:55:24.626Z,98980.25
2022-08-21T04:57:59.925Z,98982.47
2022-08-21T05:00:29.719Z,98975.75
2022-08-21T05:03:01.113Z,98984.22
2022-08-21T05:05:32.856Z,98986.19
2022-08-21T05:08:04.391Z,98983.25
2022-08-21T05:10:44.214Z,98984.84
2022-08-21T05:13:18.223Z,98983.66
2022-08-21T05:15:46.690Z,98984.72
2022-08-21T05:18:20.795Z,98992.00
2022-08-21T05:20:49.147Z,98994.75
2022-08-21T05:23:23.771Z,98987.75
2022-08-21T05:25:53.467Z,98989.31
2022-08-21T05:28:26.898Z,98992.72
2022-08-21T05:30:55.536Z,98993.53
2022-08-21T05:33:25.334Z,99000.84
2022-08-21T05:35:54.028Z,99000.53
2022-08-21T05:38:25.797Z,98999.47
2022-08-21T05:40:55.935Z,99008.13
2022-08-21T05:43:27.794Z,98997.47
2022-08-21T05:45:56.443Z,98994.84
2022-08-21T05:48:25.644Z,98996.00
2022-08-21T05:50:55.484Z,98994.06
2022-08-21T05:53:30.537Z,98989.44
2022-08-21T05:56:00.215Z,98990.62
2022-08-21T05:58:31.546Z,98990.25
2022-08-21T06:01:00.587Z,98985.31
2022-08-21T06:03:31.840Z,98985.31
2022-08-21T06:06:00.206Z,98984.44
2022-08-21T06:08:36.695Z,98990.69
2022-08-21T06:11:07.020Z,98985.59
2022-08-21T06:13:36.489Z,98994.44
2022-08-21T06:16:05.982Z,98992.19
2022-08-21T06:18:40.690Z,98993.19
2022-08-21T06:21:09.514Z,98992.84
2022-08-21T06:23:38.192Z,98992.41
2022-08-21T06:26:08.408Z,98995.81
2022-08-21T06:28:38.044Z,98995.81
2022-08-21T06:31:12.042Z,98994.47
2022-08-21T06:33:40.944Z,98992.88
2022-08-21T06:36:10.228Z,98995.34
2022-08-21T06:38:51.261Z,98995.72
2022-08-21T06:41:26.417Z,98990.16
2022-08-21T06:43:55.443Z,98997.16
2022-08-21T06:46:25.552Z,98999.88
2022-08-21T06:48:56.225Z,99004.25
2022-08-21T06:51:26.482Z,99004.50
2022-08-21T06:53:54.922Z,99008.31
2022-08-21T06:56:26.139Z,99004.84
2022-08-21T06:58:56.814Z,99006.94
2022-08-21T07:04:00.012Z,99003.56
2022-08-21T07:06:34.050Z,98997.94
2022-08-21T07:09:04.014Z,99005.47
2022-08-21T07:11:38.457Z,99005.69
2022-08-21T07:14:20.074Z,99009.50
2022-08-21T07:16:49.038Z,99016.50
2022-08-21T07:19:17.934Z,99013.50
2022-08-21T07:21:46.246Z,99007.38
2022-08-21T07:24:21.029Z,99014.81
2022-08-21T07:26:51.047Z,99016.38
2022-08-21T07:29:19.845Z,99014.59
2022-08-21T07:31:48.222Z,99010.50
2022-08-21T07:34:18.221Z,99012.38
2022-08-21T07:36:48.204Z,99006.41
2022-08-21T07:39:24.792Z,99014.66
2022-08-21T07:41:54.611Z,99006.56
2022-08-21T07:44:25.860Z,99005.00
2022-08-21T07:46:54.173Z,98999.16
2022-08-21T07:49:23.190Z,99007.41
2022-08-21T07:51:52.902Z,99007.28
2022-08-21T07:54:33.516Z,99001.25
2022-08-21T07:57:10.586Z,99000.78
2022-08-21T07:59:38.993Z,98993.31
2022-08-21T08:02:10.585Z,98992.53
2022-08-21T08:04:50.536Z,98998.97
2022-08-21T08:07:20.001Z,98995.66
2022-08-21T08:09:55.924Z,98999.75
2022-08-21T08:12:34.496Z,98997.47
2022-08-21T08:15:05.814Z,98987.87
2022-08-21T08:17:36.109Z,98990.03
2022-08-21T08:20:05.619Z,98985.44
2022-08-21T08:22:35.330Z,98985.22
2022-08-21T08:25:09.272Z,98984.72
2022-08-21T08:27:42.455Z,98978.63
2022-08-21T08:30:11.593Z,98974.75
2022-08-21T08:32:43.027Z,98979.31
2022-08-21T08:35:11.776Z,98972.41
2022-08-21T08:37:46.743Z,98980.06
2022-08-21T08:40:25.566Z,98971.03
2022-08-21T08:42:55.569Z,98975.88
2022-08-21T08:45:27.374Z,98972.50
2022-08-21T08:47:59.156Z,98975.16
2022-08-21T08:50:29.011Z,98973.47
2022-08-21T08:53:00.058Z,98979.72
2022-08-21T08:55:36.768Z,98978.97
2022-08-21T08:58:07.022Z,98981.88
2022-08-21T09:00:36.970Z,98976.94
2022-08-21T09:03:05.853Z,98976.84
2022-08-21T09:05:39.039Z,98984.88
2022-08-21T09:08:19.093Z,98985.25
2022-08-21T09:10:49.571Z,98988.66
2022-08-21T09:13:26.572Z,98986.81
2022-08-21T09:15:59.799Z,98981.31
2022-08-21T09:18:31.624Z,98987.56
2022-08-21T09:21:05.316Z,98984.53
2022-08-21T09:23:42.851Z,98980.94
2022-08-21T09:26:13.998Z,98984.75
2022-08-21T09:28:47.524Z,98975.28
2022-08-21T09:31:19.091Z,98978.06
2022-08-21T09:33:51.053Z,98980.41
2022-08-21T09:36:26.296Z,98978.84
2022-08-21T09:38:57.677Z,98977.22
2022-08-21T09:41:29.650Z,98971.78
2022-08-21T09:43:59.762Z,98973.91
2022-08-21T09:46:29.656Z,98971.09
2022-08-21T09:48:59.462Z,98970.59
2022-08-21T09:51:32.276Z,98969.91
2022-08-21T09:54:14.640Z,98972.47
2022-08-21T09:57:11.264Z,98966.78
2022-08-21T09:59:45.055Z,98971.53
2022-08-21T10:02:25.968Z,98975.31
2022-08-21T10:04:55.425Z,98975.09
2022-08-21T10:07:28.471Z,98979.34
2022-08-21T10:10:05.078Z,98969.28
2022-08-21T10:12:35.327Z,98966.00
2022-08-21T10:15:09.610Z,98978.59
2022-08-21T10:17:40.009Z,98971.25
2022-08-21T10:20:09.635Z,98963.87
2022-08-21T10:22:42.774Z,98968.81
2022-08-21T10:25:20.975Z,98973.88
2022-08-21T10:27:52.074Z,98971.81
2022-08-21T10:30:23.666Z,98965.84
2022-08-21T10:32:59.809Z,98970.88
2022-08-21T10:35:33.594Z,98969.06
2022-08-21T10:38:33.583Z,98969.22
2022-08-21T10:41:14.345Z,98962.53
2022-08-21T10:43:44.780Z,98965.91
2022-08-21T10:46:23.275Z,98960.44
2022-08-21T10:48:54.168Z,98963.31
2022-08-21T10:51:29.098Z,98952.25
2022-08-21T10:53:59.878Z,98954.69
2022-08-21T10:56:38.149Z,98960.97
2022-08-21T10:59:17.870Z,98955.81
2022-08-21T11:01:49.605Z,98953.62
2022-08-21T11:04:20.450Z,98956.87
2022-08-21T11:06:54.670Z,98945.66
2022-08-21T11:09:24.204Z,98958.59
2022-08-21T11:11:59.513Z,98950.81
2022-08-21T11:14:50.213Z,98947.66
2022-08-21T11:17:22.095Z,98948.69
2022-08-21T11:19:52.230Z,98943.31
2022-08-21T11:22:23.696Z,98942.53
2022-08-21T11:24:53.351Z,98949.06
2022-08-21T11:27:23.693Z,98950.81
2022-08-21T11:29:52.717Z,98954.13
2022-08-21T11:32:32.275Z,98941.34
2022-08-21T11:35:05.709Z,98941.25
2022-08-21T11:37:39.232Z,98944.66
2022-08-21T11:40:08.756Z,98943.38
2022-08-21T11:42:38.452Z,98944.50
2022-08-21T11:45:12.745Z,98946.97
2022-08-21T11:47:52.025Z,98939.16
2022-08-21T11:50:35.605Z,98937.38
2022-08-21T11:53:06.906Z,98937.25
2022-08-21T11:55:40.690Z,98930.59
2022-08-21T11:58:12.574Z,98936.84
2022-08-21T12:00:42.657Z,98934.72
2022-08-21T12:03:15.752Z,98934.81
2022-08-21T12:05:46.114Z,98936.22
2022-08-21T12:08:20.679Z,98935.13
2022-08-21T12:11:02.434Z,98933.72
2022-08-21T12:13:40.139Z,98932.72
2022-08-21T12:16:12.114Z,98940.34
2022-08-21T12:18:48.328Z,98932.88
2022-08-21T12:24:18.143Z,98931.34
2022-08-21T12:26:51.966Z,98930.69
2022-08-21T12:29:24.036Z,98934.37
2022-08-21T12:31:56.652Z,98928.06
2022-08-21T12:34:27.320Z,98926.13
2022-08-21T12:36:57.460Z,98920.75
2022-08-21T12:39:26.888Z,98914.19
2022-08-21T12:42:01.231Z,98923.19
2022-08-21T12:44:39.220Z,98923.25
2022-08-21T12:47:08.924Z,98918.09
2022-08-21T12:49:48.437Z,98925.41
2022-08-21T12:52:24.713Z,98919.50
2022-08-21T12:54:53.320Z,98921.75
2022-08-21T12:57:25.674Z,98919.59
2022-08-21T12:59:54.864Z,98913.50
2022-08-21T13:02:25.364Z,98914.00
2022-08-21T13:04:56.330Z,98913.19
2022-08-21T13:07:27.312Z,98903.87
2022-08-21T13:09:56.642Z,98913.53
2022-08-21T13:12:32.746Z,98907.62
2022-08-21T13:15:09.009Z,98905.25
2022-08-21T13:17:38.772Z,98903.63
2022-08-21T13:20:22.981Z,98890.09
2022-08-21T13:22:54.907Z,98893.50
2022-08-21T13:25:24.093Z,98888.87
2022-08-21T13:27:59.573Z,98887.31
2022-08-21T13:30:28.395Z,98893.06
2022-08-21T13:32:58.547Z,98909.69
2022-08-21T13:35:30.967Z,98909.06
2022-08-21T13:38:03.405Z,98905.59
2022-08-21T13:40:33.158Z,98910.41
2022-08-21T13:43:12.076Z,98908.59
2022-08-21T13:45:44.301Z,98906.69
2022-08-21T13:48:12.920Z,98911.59
2022-08-21T13:50:45.923Z,98909.59
2022-08-21T13:53:23.529Z,98911.16
2022-08-21T13:55:54.523Z,98904.50
2022-08-21T13:58:28.708Z,98908.59
2022-08-21T14:00:57.080Z,98907.56
2022-08-21T14:03:30.038Z,98903.16
2022-08-21T14:06:00.357Z,98896.97
2022-08-21T14:08:31.903Z,98897.91
2022-08-21T14:11:00.702Z,98900.03
2022-08-21T14:13:35.919Z,98904.13
2022-08-21T14:16:13.628Z,98899.34
2022-08-21T14:18:45.766Z,98906.78
2022-08-21T14:21:27.446Z,98905.56
2022-08-21T14:24:06.259Z,98893.06
2022-08-21T14:26:43.359Z,98893.56
2022-08-21T14:29:12.004Z,98895.06
2022-08-21T14:31:43.125Z,98905.84
2022-08-21T14:34:18.986Z,98897.78
2022-08-21T14:36:50.562Z,98899.84
2022-08-21T14:39:25.918Z,98898.75
2022-08-21T14:41:54.945Z,98903.06
2022-08-21T14:44:23.783Z,98895.34
2022-08-21T14:46:55.550Z,98899.00
2022-08-21T14:49:28.813Z,98908.78
2022-08-21T14:51:59.482Z,98908.63
2022-08-21T14:54:31.233Z,98902.87
2022-08-21T14:57:00.997Z,98898.44
2022-08-21T14:59:32.873Z,98900.81
2022-08-21T15:02:01.316Z,98899.88
2022-08-21T15:04:31.738Z,98895.91
2022-08-21T15:07:01.435Z,98898.19
2022-08-21T15:09:31.143Z,98891.62
2022-08-21T15:12:00.444Z,98896.34
2022-08-21T15:14:30.767Z,98894.97
2022-08-21T15:17:01.054Z,98889.28
2022-08-21T15:19:30.597Z,98891.19
2022-08-21T15:22:04.263Z,98884.19
2022-08-21T15:24:38.892Z,98891.41
2022-08-21T15:27:08.810Z,98889.91
2022-08-21T15:29:42.765Z,98888.03
2022-08-21T15:32:19.853Z,98889.75
2022-08-21T15:34:48.637Z,98889.56
2022-08-21T15:37:26.116Z,98883.72
2022-08-21T15:39:55.514Z,98891.50
2022-08-21T15:42:27.674Z,98889.63
2022-08-21T15:44:56.521Z,98888.25
2022-08-21T15:47:28.424Z,98888.63
2022-08-21T15:49:57.077Z,98882.06
2022-08-21T15:52:29.499Z,98886.59
2022-08-21T15:54:58.052Z,98891.66
2022-08-21T15:57:27.611Z,98888.72
2022-08-21T15:59:58.390Z,98883.22
2022-08-21T16:02:31.314Z,98882.06
2022-08-21T16:05:00.053Z,98886.91
2022-08-21T16:07:30.999Z,98883.72
2022-08-21T16:09:59.633Z,98887.59
2022-08-21T16:12:31.851Z,98883.28
2022-08-21T16:15:00.603Z,98892.66
2022-08-21T16:17:30.813Z,98879.06
2022-08-21T16:20:02.973Z,98886.94
2022-08-21T16:22:43.876Z,98891.94
2022-08-21T16:25:19.932Z,98891.38
2022-08-21T16:27:50.524Z,98893.66
2022-08-21T16:30:26.438Z,98893.13
2022-08-21T16:33:03.487Z,98893.34
2022-08-21T16:35:32.635Z,98889.56
2022-08-21T16:38:05.543Z,98894.63
2022-08-21T16:40:34.429Z,98895.69
2022-08-21T16:43:04.184Z,98884.34
2022-08-21T16:45:33.349Z,98885.12
2022-08-21T16:48:04.659Z,98891.19
2022-08-21T16:50:33.006Z,98889.19
2022-08-21T16:53:07.131Z,98880.06
2022-08-21T16:55:36.986Z,98878.72
2022-08-21T16:58:07.182Z,98878.13
2022-08-21T17:00:35.569Z,98880.75
2022-08-21T17:03:08.164Z,98884.09
2022-08-21T17:05:36.843Z,98881.81
2022-08-21T17:08:11.971Z,98883.03
2022-08-21T17:10:42.015Z,98884.84
2022-08-21T17:13:13.146Z,98880.13
2022-08-21T17:15:41.935Z,98879.75
2022-08-21T17:18:12.814Z,98875.94
2022-08-21T17:20:41.159Z,98870.72
2022-08-21T17:23:13.284Z,98875.47
2022-08-21T17:25:43.555Z,98875.41
2022-08-21T17:28:18.973Z,98886.00
2022-08-21T17:30:47.338Z,98881.78
2022-08-21T17:33:18.153Z,98882.50
2022-08-21T17:35:46.535Z,98878.72
2022-08-21T17:38:18.899Z,98878.31
2022-08-21T17:40:49.843Z,98887.06
2022-08-21T17:43:19.901Z,98883.75
2022-08-21T17:45:50.604Z,98889.44
2022-08-21T17:48:25.490Z,98892.38
2022-08-21T17:50:58.807Z,98890.16
2022-08-21T17:53:27.980Z,98891.34
2022-08-21T17:55:58.301Z,98897.31
2022-08-21T17:58:27.381Z,98884.44
2022-08-21T18:00:56.209Z,98886.75
2022-08-21T18:03:28.159Z,98883.13
2022-08-21T18:05:58.831Z,98877.38
2022-08-21T18:08:29.557Z,98880.84
2022-08-21T18:10:59.322Z,98886.88
2022-08-21T18:13:29.139Z,98887.06
2022-08-21T18:15:57.713Z,98894.88
2022-08-21T18:18:32.120Z,98891.47
2022-08-21T18:21:00.810Z,98894.66
2022-08-21T18:23:43.824Z,98889.28
2022-08-21T18:26:15.537Z,98893.72
2022-08-21T18:28:44.331Z,98912.63
2022-08-21T18:31:14.229Z,98906.25
2022-08-21T18:33:57.021Z,98909.41
2022-08-21T18:36:27.617Z,98907.53
2022-08-21T18:39:25.835Z,98914.88
2022-08-21T18:41:54.746Z,98918.84
2022-08-21T18:44:27.417Z,98921.94
2022-08-21T18:46:57.294Z,98917.69
2022-08-21T18:49:29.219Z,98915.00
2022-08-21T18:52:05.754Z,98916.47
2022-08-21T18:54:34.367Z,98908.00
2022-08-21T18:57:12.554Z,98908.88
2022-08-21T18:59:47.064Z,98904.53
2022-08-21T19:02:27.424Z,98906.75
2022-08-21T19:05:02.888Z,98907.22
2022-08-21T19:07:41.398Z,98904.75
2022-08-21T19:10:28.595Z,98901.09
2022-08-21T19:13:02.008Z,98904.28
2022-08-21T19:15:45.724Z,98906.50
2022-08-21T19:18:15.642Z,98901.88
2022-08-21T19:23:35.571Z,98903.47
2022-08-21T19:26:08.246Z,98905.31
2022-08-21T19:28:41.303Z,98892.78
2022-08-21T19:31:16.637Z,98895.72
2022-08-21T19:33:57.685Z,98890.03
2022-08-21T19:36:34.035Z,98891.28
2022-08-21T19:42:03.862Z,98898.69
2022-08-21T19:44:43.110Z,98902.63
2022-08-21T19:47:29.387Z,98889.53
2022-08-21T19:50:17.415Z,98896.28
2022-08-21T19:52:55.665Z,98888.91
2022-08-21T19:55:29.498Z,98883.84
2022-08-21T19:57:58.051Z,98888.56
2022-08-21T20:00:30.873Z,98889.50
2022-08-21T20:03:05.368Z,98896.25
2022-08-21T20:05:39.858Z,98896.91
2022-08-21T20:08:20.192Z,98892.34
2022-08-21T20:10:50.193Z,98887.41
2022-08-21T20:13:22.885Z,98889.66
2022-08-21T20:16:01.083Z,98886.03
2022-08-21T20:18:35.212Z,98886.28
2022-08-21T20:21:08.309Z,98881.75
2022-08-21T20:23:48.266Z,98884.09
2022-08-21T20:26:24.072Z,98880.44
2022-08-21T20:31:48.852Z,98874.16
2022-08-21T20:34:18.588Z,98874.81
2022-08-21T20:36:50.927Z,98867.53
2022-08-21T20:39:23.822Z,98869.84
2022-08-21T20:41:53.142Z,98864.25
2022-08-21T20:44:21.858Z,98854.06
2022-08-21T20:46:54.311Z,98853.41
2022-08-21T20:49:23.126Z,98849.87
2022-08-21T20:51:54.479Z,98847.53
2022-08-21T20:54:24.617Z,98848.28
2022-08-21T20:56:55.894Z,98846.53
2022-08-21T20:59:34.473Z,98848.72
2022-08-21T21:05:05.392Z,98839.81
2022-08-21T21:07:36.316Z,98851.94
2022-08-21T21:10:07.343Z,98848.50
2022-08-21T21:13:01.480Z,98857.94
2022-08-21T21:15:35.659Z,98847.19
2022-08-21T21:18:13.100Z,98849.31
2022-08-21T21:20:46.406Z,98846.94
2022-08-21T21:23:18.348Z,98844.34
2022-08-21T21:25:57.154Z,98848.94
2022-08-21T21:28:27.440Z,98838.41
2022-08-21T21:31:05.515Z,98834.50
2022-08-21T21:33:37.996Z,98843.88
2022-08-21T21:36:10.445Z,98839.53
2022-08-21T21:41:32.212Z,98836.44
2022-08-21T21:44:09.844Z,98843.59
2022-08-21T21:46:53.018Z,98849.00
2022-08-21T21:49:36.373Z,98859.31
2022-08-21T21:52:19.398Z,98843.13
2022-08-21T21:54:58.421Z,98835.56
2022-08-21T21:57:43.308Z,98835.22
2022-08-21T22:00:18.994Z,98830.72
2022-08-21T22:02:55.142Z,98829.59
2022-08-21T22:05:42.549Z,98825.78
2022-08-21T22:08:16.067Z,98825.72
2022-08-21T22:10:47.293Z,98819.13
2022-08-21T22:13:27.286Z,98817.16
2022-08-21T22:15:59.166Z,98818.59
2022-08-21T22:18:30.127Z,98825.56
2022-08-21T22:21:00.541Z,98824.34
2022-08-21T22:23:32.411Z,98815.19
2022-08-21T22:26:04.067Z,98815.97
2022-08-21T22:28:37.108Z,98812.00
2022-08-21T22:31:18.242Z,98817.31
2022-08-21T22:34:04.160Z,98824.78
2022-08-21T22:36:38.539Z,98814.00
2022-08-21T22:39:20.485Z,98809.31
2022-08-21T22:41:58.822Z,98811.94
2022-08-21T22:44:31.273Z,98810.03
2022-08-21T22:47:08.867Z,98815.22
2022-08-21T22:49:47.064Z,98815.75
2022-08-21T22:52:31.672Z,98817.50
2022-08-21T22:55:12.511Z,98821.63
2022-08-21T22:57:42.315Z,98813.09
2022-08-21T23:00:16.759Z,98809.19
2022-08-21T23:02:58.633Z,98803.44
2022-08-21T23:05:36.067Z,98802.50
2022-08-21T23:08:24.350Z,98798.06
2022-08-21T23:10:59.730Z,98800.78
2022-08-21T23:13:29.899Z,98796.44
2022-08-21T23:16:03.934Z,98794.44
2022-08-21T23:18:49.713Z,98798.28
2022-08-21T23:21:28.192Z,98792.72
2022-08-21T23:24:04.241Z,98790.91
2022-08-21T23:26:40.430Z,98790.81
2022-08-21T23:32:17.277Z,98775.19
2022-08-21T23:34:57.510Z,98778.56
2022-08-21T23:40:50.508Z,98780.44
2022-08-21T23:43:25.207Z,98799.13
2022-08-21T23:46:00.961Z,98789.13
2022-08-21T23:48:39.713Z,98779.44
2022-08-21T23:51:14.114Z,98785.88
2022-08-21T23:53:56.356Z,98780.72
2022-08-21T23:56:27.536Z,98777.56
2022-08-21T23:59:00.381Z,98773.72
